sensor_id;sensor_type;location;lat;lon;timestamp;temperature;humidity
69009;SHT31;56065;52.472;13.380;2024-01-11T00:00:02;-3.30;79.61
69009;SHT31;56065;52.472;13.380;2024-01-11T00:02:28;-3.27;79.61
69009;SHT31;56065;52.472;13.380;2024-01-11T00:04:54;-3.32;79.60
69009;SHT31;56065;52.472;13.380;2024-01-11T00:07:19;-3.45;80.13
69009;SHT31;56065;52.472;13.380;2024-01-11T00:09:44;-3.43;80.31
69009;SHT31;56065;52.472;13.380;2024-01-11T00:12:10;-3.43;80.23
69009;SHT31;56065;52.472;13.380;2024-01-11T00:14:36;-3.45;79.71
69009;SHT31;56065;52.472;13.380;2024-01-11T00:17:01;-3.55;79.96
69009;SHT31;56065;52.472;13.380;2024-01-11T00:19:27;-3.70;81.39
69009;SHT31;56065;52.472;13.380;2024-01-11T00:21:52;-3.64;80.60
69009;SHT31;56065;52.472;13.380;2024-01-11T00:24:18;-3.64;81.03
69009;SHT31;56065;52.472;13.380;2024-01-11T00:26:43;-3.62;81.01
69009;SHT31;56065;52.472;13.380;2024-01-11T00:29:08;-3.60;80.92
69009;SHT31;56065;52.472;13.380;2024-01-11T00:31:34;-3.56;80.77
69009;SHT31;56065;52.472;13.380;2024-01-11T00:34:00;-3.51;81.21
69009;SHT31;56065;52.472;13.380;2024-01-11T00:36:25;-3.58;81.87
69009;SHT31;56065;52.472;13.380;2024-01-11T00:38:51;-3.60;81.93
69009;SHT31;56065;52.472;13.380;2024-01-11T00:41:16;-3.56;81.42
69009;SHT31;56065;52.472;13.380;2024-01-11T00:43:42;-3.53;81.27
69009;SHT31;56065;52.472;13.380;2024-01-11T00:46:07;-3.52;80.92
69009;SHT31;56065;52.472;13.380;2024-01-11T00:48:33;-3.53;80.84
69009;SHT31;56065;52.472;13.380;2024-01-11T00:50:58;-3.53;81.09
69009;SHT31;56065;52.472;13.380;2024-01-11T00:53:23;-3.56;81.73
69009;SHT31;56065;52.472;13.380;2024-01-11T00:55:49;-3.53;81.55
69009;SHT31;56065;52.472;13.380;2024-01-11T00:58:14;-3.59;81.71
69009;SHT31;56065;52.472;13.380;2024-01-11T01:00:39;-3.55;81.31
69009;SHT31;56065;52.472;13.380;2024-01-11T01:03:05;-3.60;81.65
69009;SHT31;56065;52.472;13.380;2024-01-11T01:05:30;-3.63;82.35
69009;SHT31;56065;52.472;13.380;2024-01-11T01:07:55;-3.62;81.97
69009;SHT31;56065;52.472;13.380;2024-01-11T01:10:21;-3.63;81.48
69009;SHT31;56065;52.472;13.380;2024-01-11T01:12:46;-3.64;81.48
69009;SHT31;56065;52.472;13.380;2024-01-11T01:15:11;-3.69;81.79
69009;SHT31;56065;52.472;13.380;2024-01-11T01:17:37;-3.74;82.66
69009;SHT31;56065;52.472;13.380;2024-01-11T01:20:03;-3.76;82.32
69009;SHT31;56065;52.472;13.380;2024-01-11T01:22:28;-3.76;82.35
69009;SHT31;56065;52.472;13.380;2024-01-11T01:24:54;-3.79;82.42
69009;SHT31;56065;52.472;13.380;2024-01-11T01:27:19;-3.73;82.36
69009;SHT31;56065;52.472;13.380;2024-01-11T01:29:44;-3.79;82.46
69009;SHT31;56065;52.472;13.380;2024-01-11T01:32:10;-3.76;82.58
69009;SHT31;56065;52.472;13.380;2024-01-11T01:34:35;-3.73;82.42
69009;SHT31;56065;52.472;13.380;2024-01-11T01:37:00;-3.72;81.82
69009;SHT31;56065;52.472;13.380;2024-01-11T01:39:26;-3.79;82.56
69009;SHT31;56065;52.472;13.380;2024-01-11T01:41:51;-3.73;81.99
69009;SHT31;56065;52.472;13.380;2024-01-11T01:44:16;-3.87;82.76
69009;SHT31;56065;52.472;13.380;2024-01-11T01:46:42;-3.90;83.29
69009;SHT31;56065;52.472;13.380;2024-01-11T01:49:07;-3.91;83.09
69009;SHT31;56065;52.472;13.380;2024-01-11T01:51:33;-3.86;82.56
69009;SHT31;56065;52.472;13.380;2024-01-11T01:53:59;-3.97;83.20
69009;SHT31;56065;52.472;13.380;2024-01-11T01:56:25;-4.07;83.30
69009;SHT31;56065;52.472;13.380;2024-01-11T01:58:51;-4.11;83.71
69009;SHT31;56065;52.472;13.380;2024-01-11T02:01:19;-4.11;83.68
69009;SHT31;56065;52.472;13.380;2024-01-11T02:03:46;-4.05;83.65
69009;SHT31;56065;52.472;13.380;2024-01-11T02:06:14;-4.01;83.02
69009;SHT31;56065;52.472;13.380;2024-01-11T02:08:42;-4.01;83.21
69009;SHT31;56065;52.472;13.380;2024-01-11T02:11:10;-4.00;83.04
69009;SHT31;56065;52.472;13.380;2024-01-11T02:13:35;-3.97;82.62
69009;SHT31;56065;52.472;13.380;2024-01-11T02:16:01;-4.00;82.74
69009;SHT31;56065;52.472;13.380;2024-01-11T02:18:26;-3.98;82.91
69009;SHT31;56065;52.472;13.380;2024-01-11T02:20:52;-3.98;83.25
69009;SHT31;56065;52.472;13.380;2024-01-11T02:23:18;-3.97;83.33
69009;SHT31;56065;52.472;13.380;2024-01-11T02:25:44;-3.87;83.89
69009;SHT31;56065;52.472;13.380;2024-01-11T02:28:10;-3.83;85.06
69009;SHT31;56065;52.472;13.380;2024-01-11T02:30:36;-3.69;84.13
69009;SHT31;56065;52.472;13.380;2024-01-11T02:33:01;-3.69;84.24
69009;SHT31;56065;52.472;13.380;2024-01-11T02:35:27;-3.64;83.85
69009;SHT31;56065;52.472;13.380;2024-01-11T02:37:54;-3.72;83.95
69009;SHT31;56065;52.472;13.380;2024-01-11T02:40:19;-3.72;84.09
69009;SHT31;56065;52.472;13.380;2024-01-11T02:42:45;-3.74;84.34
69009;SHT31;56065;52.472;13.380;2024-01-11T02:45:12;-3.72;84.27
69009;SHT31;56065;52.472;13.380;2024-01-11T02:47:40;-3.76;84.86
69009;SHT31;56065;52.472;13.380;2024-01-11T02:50:06;-3.60;84.90
69009;SHT31;56065;52.472;13.380;2024-01-11T02:52:33;-3.64;85.08
69009;SHT31;56065;52.472;13.380;2024-01-11T02:54:58;-3.59;84.72
69009;SHT31;56065;52.472;13.380;2024-01-11T02:57:23;-3.62;84.57
69009;SHT31;56065;52.472;13.380;2024-01-11T02:59:51;-3.58;84.50
69009;SHT31;56065;52.472;13.380;2024-01-11T03:02:16;-3.46;84.16
69009;SHT31;56065;52.472;13.380;2024-01-11T03:04:42;-3.45;83.70
69009;SHT31;56065;52.472;13.380;2024-01-11T03:07:07;-3.45;83.72
69009;SHT31;56065;52.472;13.380;2024-01-11T03:09:32;-3.41;83.64
69009;SHT31;56065;52.472;13.380;2024-01-11T03:11:59;-3.62;84.15
69009;SHT31;56065;52.472;13.380;2024-01-11T03:14:24;-3.60;83.85
69009;SHT31;56065;52.472;13.380;2024-01-11T03:16:49;-3.66;84.02
69009;SHT31;56065;52.472;13.380;2024-01-11T03:19:15;-3.72;84.03
69009;SHT31;56065;52.472;13.380;2024-01-11T03:21:42;-3.76;83.83
69009;SHT31;56065;52.472;13.380;2024-01-11T03:24:08;-3.74;83.86
69009;SHT31;56065;52.472;13.380;2024-01-11T03:26:33;-3.80;83.96
69009;SHT31;56065;52.472;13.380;2024-01-11T03:28:59;-3.80;84.43
69009;SHT31;56065;52.472;13.380;2024-01-11T03:31:24;-3.90;84.55
69009;SHT31;56065;52.472;13.380;2024-01-11T03:33:49;-3.86;84.79
69009;SHT31;56065;52.472;13.380;2024-01-11T03:36:15;-3.86;84.90
69009;SHT31;56065;52.472;13.380;2024-01-11T03:38:40;-3.73;84.21
69009;SHT31;56065;52.472;13.380;2024-01-11T03:41:08;-3.67;83.74
69009;SHT31;56065;52.472;13.380;2024-01-11T03:43:34;-3.53;83.67
69009;SHT31;56065;52.472;13.380;2024-01-11T03:45:59;-3.55;84.24
69009;SHT31;56065;52.472;13.380;2024-01-11T03:48:24;-3.45;84.04
69009;SHT31;56065;52.472;13.380;2024-01-11T03:50:50;-3.46;84.54
69009;SHT31;56065;52.472;13.380;2024-01-11T03:53:15;-3.42;84.57
69009;SHT31;56065;52.472;13.380;2024-01-11T03:55:40;-3.35;83.56
69009;SHT31;56065;52.472;13.380;2024-01-11T03:58:06;-3.22;83.43
69009;SHT31;56065;52.472;13.380;2024-01-11T04:00:31;-3.24;83.36
69009;SHT31;56065;52.472;13.380;2024-01-11T04:02:58;-3.11;83.44
69009;SHT31;56065;52.472;13.380;2024-01-11T04:05:23;-3.08;83.29
69009;SHT31;56065;52.472;13.380;2024-01-11T04:07:49;-3.02;83.51
69009;SHT31;56065;52.472;13.380;2024-01-11T04:10:17;-2.91;83.19
69009;SHT31;56065;52.472;13.380;2024-01-11T04:12:43;-2.83;83.36
69009;SHT31;56065;52.472;13.380;2024-01-11T04:15:08;-2.76;83.06
69009;SHT31;56065;52.472;13.380;2024-01-11T04:17:34;-2.79;83.50
69009;SHT31;56065;52.472;13.380;2024-01-11T04:19:59;-2.70;83.37
69009;SHT31;56065;52.472;13.380;2024-01-11T04:22:24;-2.79;83.85
69009;SHT31;56065;52.472;13.380;2024-01-11T04:24:50;-2.76;83.98
69009;SHT31;56065;52.472;13.380;2024-01-11T04:27:15;-2.67;84.29
69009;SHT31;56065;52.472;13.380;2024-01-11T04:29:41;-2.60;84.13
69009;SHT31;56065;52.472;13.380;2024-01-11T04:32:06;-2.62;84.68
69009;SHT31;56065;52.472;13.380;2024-01-11T04:34:31;-2.56;84.68
69009;SHT31;56065;52.472;13.380;2024-01-11T04:36:57;-2.54;84.75
69009;SHT31;56065;52.472;13.380;2024-01-11T04:39:22;-2.56;84.96
69009;SHT31;56065;52.472;13.380;2024-01-11T04:41:47;-2.45;84.82
69009;SHT31;56065;52.472;13.380;2024-01-11T04:44:13;-2.33;84.75
69009;SHT31;56065;52.472;13.380;2024-01-11T04:46:38;-2.36;84.85
69009;SHT31;56065;52.472;13.380;2024-01-11T04:49:03;-2.29;85.46
69009;SHT31;56065;52.472;13.380;2024-01-11T04:51:29;-2.21;85.36
69009;SHT31;56065;52.472;13.380;2024-01-11T04:53:54;-2.18;85.61
69009;SHT31;56065;52.472;13.380;2024-01-11T04:56:20;-2.26;86.11
69009;SHT31;56065;52.472;13.380;2024-01-11T04:58:45;-2.12;85.63
69009;SHT31;56065;52.472;13.380;2024-01-11T05:01:17;-2.05;85.21
69009;SHT31;56065;52.472;13.380;2024-01-11T05:03:44;-2.02;85.52
69009;SHT31;56065;52.472;13.380;2024-01-11T05:06:20;-2.16;86.22
69009;SHT31;56065;52.472;13.380;2024-01-11T05:08:51;-2.05;86.19
69009;SHT31;56065;52.472;13.380;2024-01-11T05:11:21;-2.03;86.43
69009;SHT31;56065;52.472;13.380;2024-01-11T05:13:47;-2.09;86.74
69009;SHT31;56065;52.472;13.380;2024-01-11T05:16:26;-1.99;86.21
69009;SHT31;56065;52.472;13.380;2024-01-11T05:18:53;-1.91;86.23
69009;SHT31;56065;52.472;13.380;2024-01-11T05:21:19;-1.82;86.13
69009;SHT31;56065;52.472;13.380;2024-01-11T05:23:45;-1.82;86.65
69009;SHT31;56065;52.472;13.380;2024-01-11T05:26:10;-1.82;86.21
69009;SHT31;56065;52.472;13.380;2024-01-11T05:28:36;-1.85;86.12
69009;SHT31;56065;52.472;13.380;2024-01-11T05:31:05;-1.72;86.25
69009;SHT31;56065;52.472;13.380;2024-01-11T05:33:31;-1.63;86.36
69009;SHT31;56065;52.472;13.380;2024-01-11T05:35:57;-1.63;85.93
69009;SHT31;56065;52.472;13.380;2024-01-11T05:38:22;-1.59;85.71
69009;SHT31;56065;52.472;13.380;2024-01-11T05:40:47;-1.57;85.75
69009;SHT31;56065;52.472;13.380;2024-01-11T05:43:13;-1.60;86.04
69009;SHT31;56065;52.472;13.380;2024-01-11T05:45:38;-1.57;85.98
69009;SHT31;56065;52.472;13.380;2024-01-11T05:48:04;-1.61;86.37
69009;SHT31;56065;52.472;13.380;2024-01-11T05:50:31;-1.66;86.30
69009;SHT31;56065;52.472;13.380;2024-01-11T05:52:56;-1.57;86.18
69009;SHT31;56065;52.472;13.380;2024-01-11T05:55:22;-1.54;86.63
69009;SHT31;56065;52.472;13.380;2024-01-11T05:57:48;-1.49;86.24
69009;SHT31;56065;52.472;13.380;2024-01-11T06:00:13;-1.46;86.03
69009;SHT31;56065;52.472;13.380;2024-01-11T06:02:39;-1.40;86.05
69009;SHT31;56065;52.472;13.380;2024-01-11T06:05:08;-1.40;86.01
69009;SHT31;56065;52.472;13.380;2024-01-11T06:07:33;-1.35;86.08
69009;SHT31;56065;52.472;13.380;2024-01-11T06:09:58;-1.37;86.17
69009;SHT31;56065;52.472;13.380;2024-01-11T06:12:26;-1.30;86.05
69009;SHT31;56065;52.472;13.380;2024-01-11T06:14:51;-1.33;86.48
69009;SHT31;56065;52.472;13.380;2024-01-11T06:17:17;-1.29;86.72
69009;SHT31;56065;52.472;13.380;2024-01-11T06:19:42;-1.16;86.35
69009;SHT31;56065;52.472;13.380;2024-01-11T06:22:07;-1.17;85.99
69009;SHT31;56065;52.472;13.380;2024-01-11T06:24:33;-1.17;86.34
69009;SHT31;56065;52.472;13.380;2024-01-11T06:26:58;-1.17;86.10
69009;SHT31;56065;52.472;13.380;2024-01-11T06:29:23;-1.05;86.30
69009;SHT31;56065;52.472;13.380;2024-01-11T06:31:49;-1.12;86.17
69009;SHT31;56065;52.472;13.380;2024-01-11T06:34:14;-1.00;86.07
69009;SHT31;56065;52.472;13.380;2024-01-11T06:36:40;-1.00;86.19
69009;SHT31;56065;52.472;13.380;2024-01-11T06:39:05;-0.95;86.01
69009;SHT31;56065;52.472;13.380;2024-01-11T06:41:31;-0.88;86.05
69009;SHT31;56065;52.472;13.380;2024-01-11T06:43:56;-0.99;87.23
69009;SHT31;56065;52.472;13.380;2024-01-11T06:46:22;-0.82;86.95
69009;SHT31;56065;52.472;13.380;2024-01-11T06:48:48;-0.72;86.23
69009;SHT31;56065;52.472;13.380;2024-01-11T06:51:15;-0.69;86.65
69009;SHT31;56065;52.472;13.380;2024-01-11T06:53:41;-0.60;86.05
69009;SHT31;56065;52.472;13.380;2024-01-11T06:56:17;-0.57;86.00
69009;SHT31;56065;52.472;13.380;2024-01-11T06:58:43;-0.56;86.44
69009;SHT31;56065;52.472;13.380;2024-01-11T07:01:09;-0.51;86.07
69009;SHT31;56065;52.472;13.380;2024-01-11T07:03:34;-0.67;86.68
69009;SHT31;56065;52.472;13.380;2024-01-11T07:06:00;-0.62;86.71
69009;SHT31;56065;52.472;13.380;2024-01-11T07:08:25;-0.69;87.00
69009;SHT31;56065;52.472;13.380;2024-01-11T07:10:51;-0.56;86.82
69009;SHT31;56065;52.472;13.380;2024-01-11T07:13:16;-0.61;86.70
69009;SHT31;56065;52.472;13.380;2024-01-11T07:15:42;-0.57;86.28
69009;SHT31;56065;52.472;13.380;2024-01-11T07:18:08;-0.53;86.03
69009;SHT31;56065;52.472;13.380;2024-01-11T07:20:34;-0.53;85.95
69009;SHT31;56065;52.472;13.380;2024-01-11T07:22:59;-0.48;85.85
69009;SHT31;56065;52.472;13.380;2024-01-11T07:25:25;-0.54;85.88
69009;SHT31;56065;52.472;13.380;2024-01-11T07:27:50;-0.50;85.77
69009;SHT31;56065;52.472;13.380;2024-01-11T07:30:15;-0.48;85.84
69009;SHT31;56065;52.472;13.380;2024-01-11T07:32:41;-0.50;86.18
69009;SHT31;56065;52.472;13.380;2024-01-11T07:35:07;-0.58;86.13
69009;SHT31;56065;52.472;13.380;2024-01-11T07:37:32;-0.51;86.05
69009;SHT31;56065;52.472;13.380;2024-01-11T07:39:57;-0.48;86.06
69009;SHT31;56065;52.472;13.380;2024-01-11T07:42:23;-0.41;85.89
69009;SHT31;56065;52.472;13.380;2024-01-11T07:44:48;-0.34;85.89
69009;SHT31;56065;52.472;13.380;2024-01-11T07:47:13;-0.42;86.34
69009;SHT31;56065;52.472;13.380;2024-01-11T07:49:39;-0.34;86.17
69009;SHT31;56065;52.472;13.380;2024-01-11T07:52:04;-0.34;86.14
69009;SHT31;56065;52.472;13.380;2024-01-11T07:54:30;-0.38;86.25
69009;SHT31;56065;52.472;13.380;2024-01-11T07:56:56;-0.33;86.34
69009;SHT31;56065;52.472;13.380;2024-01-11T07:59:22;-0.37;86.14
69009;SHT31;56065;52.472;13.380;2024-01-11T08:01:47;-0.27;86.05
69009;SHT31;56065;52.472;13.380;2024-01-11T08:04:14;-0.26;86.34
69009;SHT31;56065;52.472;13.380;2024-01-11T08:06:39;-0.34;86.50
69009;SHT31;56065;52.472;13.380;2024-01-11T08:09:05;-0.28;86.63
69009;SHT31;56065;52.472;13.380;2024-01-11T08:11:30;-0.21;86.41
69009;SHT31;56065;52.472;13.380;2024-01-11T08:13:56;-0.28;86.84
69009;SHT31;56065;52.472;13.380;2024-01-11T08:16:22;-0.20;87.90
69009;SHT31;56065;52.472;13.380;2024-01-11T08:18:47;0.01;87.20
69009;SHT31;56065;52.472;13.380;2024-01-11T08:21:14;0.00;87.29
69009;SHT31;56065;52.472;13.380;2024-01-11T08:23:40;-0.13;86.84
69009;SHT31;56065;52.472;13.380;2024-01-11T08:26:13;-0.05;86.95
69009;SHT31;56065;52.472;13.380;2024-01-11T08:28:44;-0.09;86.66
69009;SHT31;56065;52.472;13.380;2024-01-11T08:31:09;-0.11;86.94
69009;SHT31;56065;52.472;13.380;2024-01-11T08:33:34;-0.16;87.24
69009;SHT31;56065;52.472;13.380;2024-01-11T08:36:02;-0.16;87.36
69009;SHT31;56065;52.472;13.380;2024-01-11T08:38:29;-0.10;87.22
69009;SHT31;56065;52.472;13.380;2024-01-11T08:40:54;-0.07;87.19
69009;SHT31;56065;52.472;13.380;2024-01-11T08:43:20;0.03;87.12
69009;SHT31;56065;52.472;13.380;2024-01-11T08:45:45;-0.03;86.90
69009;SHT31;56065;52.472;13.380;2024-01-11T08:48:12;-0.09;87.67
69009;SHT31;56065;52.472;13.380;2024-01-11T08:50:37;0.03;87.35
69009;SHT31;56065;52.472;13.380;2024-01-11T08:53:03;-0.05;87.42
69009;SHT31;56065;52.472;13.380;2024-01-11T08:55:28;0.07;87.46
69009;SHT31;56065;52.472;13.380;2024-01-11T08:57:54;0.22;87.05
69009;SHT31;56065;52.472;13.380;2024-01-11T09:00:19;0.25;86.81
69009;SHT31;56065;52.472;13.380;2024-01-11T09:02:45;0.37;86.79
69009;SHT31;56065;52.472;13.380;2024-01-11T09:05:11;0.45;86.71
69009;SHT31;56065;52.472;13.380;2024-01-11T09:07:36;0.51;86.47
69009;SHT31;56065;52.472;13.380;2024-01-11T09:10:02;0.48;86.65
69009;SHT31;56065;52.472;13.380;2024-01-11T09:12:28;0.61;86.47
69009;SHT31;56065;52.472;13.380;2024-01-11T09:14:53;0.53;86.50
69009;SHT31;56065;52.472;13.380;2024-01-11T09:17:19;0.79;86.05
69009;SHT31;56065;52.472;13.380;2024-01-11T09:19:45;0.70;86.10
69009;SHT31;56065;52.472;13.380;2024-01-11T09:22:10;0.72;85.97
69009;SHT31;56065;52.472;13.380;2024-01-11T09:24:36;0.61;86.34
69009;SHT31;56065;52.472;13.380;2024-01-11T09:27:01;0.79;86.13
69009;SHT31;56065;52.472;13.380;2024-01-11T09:29:28;0.72;86.28
69009;SHT31;56065;52.472;13.380;2024-01-11T09:31:53;0.83;86.03
69009;SHT31;56065;52.472;13.380;2024-01-11T09:34:19;0.87;85.91
69009;SHT31;56065;52.472;13.380;2024-01-11T09:36:44;0.83;85.98
69009;SHT31;56065;52.472;13.380;2024-01-11T09:39:10;0.75;86.11
69009;SHT31;56065;52.472;13.380;2024-01-11T09:41:42;0.89;86.13
69009;SHT31;56065;52.472;13.380;2024-01-11T09:44:10;0.84;85.87
69009;SHT31;56065;52.472;13.380;2024-01-11T09:46:35;0.94;85.73
69009;SHT31;56065;52.472;13.380;2024-01-11T09:49:02;0.84;85.88
69009;SHT31;56065;52.472;13.380;2024-01-11T09:51:29;0.86;85.79
69009;SHT31;56065;52.472;13.380;2024-01-11T09:53:55;0.86;85.86
69009;SHT31;56065;52.472;13.380;2024-01-11T09:56:21;1.00;85.32
69009;SHT31;56065;52.472;13.380;2024-01-11T09:58:50;0.83;86.02
69009;SHT31;56065;52.472;13.380;2024-01-11T10:01:16;0.84;86.09
69009;SHT31;56065;52.472;13.380;2024-01-11T10:03:42;0.69;85.93
69009;SHT31;56065;52.472;13.380;2024-01-11T10:06:08;0.68;86.09
69009;SHT31;56065;52.472;13.380;2024-01-11T10:08:35;0.61;86.21
69009;SHT31;56065;52.472;13.380;2024-01-11T10:11:01;0.65;86.08
69009;SHT31;56065;52.472;13.380;2024-01-11T10:13:29;0.70;86.03
69009;SHT31;56065;52.472;13.380;2024-01-11T10:16:11;0.68;85.83
69009;SHT31;56065;52.472;13.380;2024-01-11T10:18:41;0.62;86.19
69009;SHT31;56065;52.472;13.380;2024-01-11T10:21:06;0.61;86.33
69009;SHT31;56065;52.472;13.380;2024-01-11T10:23:35;0.58;85.97
69009;SHT31;56065;52.472;13.380;2024-01-11T10:26:01;0.59;86.12
69009;SHT31;56065;52.472;13.380;2024-01-11T10:28:27;0.63;85.93
69009;SHT31;56065;52.472;13.380;2024-01-11T10:30:53;0.56;86.16
69009;SHT31;56065;52.472;13.380;2024-01-11T10:33:20;0.59;85.89
69009;SHT31;56065;52.472;13.380;2024-01-11T10:35:48;0.73;86.07
69009;SHT31;56065;52.472;13.380;2024-01-11T10:38:17;0.80;85.85
69009;SHT31;56065;52.472;13.380;2024-01-11T10:40:43;0.77;85.81
69009;SHT31;56065;52.472;13.380;2024-01-11T10:43:10;0.82;85.71
69009;SHT31;56065;52.472;13.380;2024-01-11T10:45:37;0.75;85.70
69009;SHT31;56065;52.472;13.380;2024-01-11T10:48:11;0.63;85.88
69009;SHT31;56065;52.472;13.380;2024-01-11T10:50:42;0.87;85.52
69009;SHT31;56065;52.472;13.380;2024-01-11T10:55:53;0.79;85.66
69009;SHT31;56065;52.472;13.380;2024-01-11T10:58:19;0.79;85.72
69009;SHT31;56065;52.472;13.380;2024-01-11T11:00:46;0.79;85.69
69009;SHT31;56065;52.472;13.380;2024-01-11T11:03:14;1.01;85.43
69009;SHT31;56065;52.472;13.380;2024-01-11T11:05:42;0.96;85.36
69009;SHT31;56065;52.472;13.380;2024-01-11T11:08:09;0.94;85.45
69009;SHT31;56065;52.472;13.380;2024-01-11T11:10:36;1.04;85.27
69009;SHT31;56065;52.472;13.380;2024-01-11T11:13:02;0.93;85.39
69009;SHT31;56065;52.472;13.380;2024-01-11T11:15:28;0.84;85.80
69009;SHT31;56065;52.472;13.380;2024-01-11T11:17:54;0.83;85.65
69009;SHT31;56065;52.472;13.380;2024-01-11T11:20:20;0.73;86.05
69009;SHT31;56065;52.472;13.380;2024-01-11T11:23:04;0.73;85.82
69009;SHT31;56065;52.472;13.380;2024-01-11T11:25:30;0.59;86.58
69009;SHT31;56065;52.472;13.380;2024-01-11T11:27:56;0.69;86.87
69009;SHT31;56065;52.472;13.380;2024-01-11T11:30:21;0.69;86.78
69009;SHT31;56065;52.472;13.380;2024-01-11T11:32:47;0.76;86.52
69009;SHT31;56065;52.472;13.380;2024-01-11T11:35:12;0.79;86.64
69009;SHT31;56065;52.472;13.380;2024-01-11T11:37:39;0.90;86.28
69009;SHT31;56065;52.472;13.380;2024-01-11T11:40:13;0.86;86.58
69009;SHT31;56065;52.472;13.380;2024-01-11T11:42:39;0.72;87.27
69009;SHT31;56065;52.472;13.380;2024-01-11T11:45:06;0.72;87.31
69009;SHT31;56065;52.472;13.380;2024-01-11T11:47:36;0.80;87.11
69009;SHT31;56065;52.472;13.380;2024-01-11T11:50:10;0.90;87.17
69009;SHT31;56065;52.472;13.380;2024-01-11T11:52:37;0.87;87.66
69009;SHT31;56065;52.472;13.380;2024-01-11T11:55:05;1.00;87.44
69009;SHT31;56065;52.472;13.380;2024-01-11T11:57:31;0.97;87.65
69009;SHT31;56065;52.472;13.380;2024-01-11T11:59:58;1.03;87.60
69009;SHT31;56065;52.472;13.380;2024-01-11T12:02:26;1.07;87.78
69009;SHT31;56065;52.472;13.380;2024-01-11T12:04:52;1.12;87.63
69009;SHT31;56065;52.472;13.380;2024-01-11T12:07:17;1.30;87.31
69009;SHT31;56065;52.472;13.380;2024-01-11T12:09:43;1.27;87.30
69009;SHT31;56065;52.472;13.380;2024-01-11T12:12:09;1.43;87.13
69009;SHT31;56065;52.472;13.380;2024-01-11T12:14:35;1.38;87.08
69009;SHT31;56065;52.472;13.380;2024-01-11T12:17:01;1.38;87.33
69009;SHT31;56065;52.472;13.380;2024-01-11T12:19:27;1.40;87.51
69009;SHT31;56065;52.472;13.380;2024-01-11T12:21:52;1.35;87.74
69009;SHT31;56065;52.472;13.380;2024-01-11T12:24:18;1.50;87.43
69009;SHT31;56065;52.472;13.380;2024-01-11T12:26:44;1.54;87.32
69009;SHT31;56065;52.472;13.380;2024-01-11T12:29:13;1.52;87.29
69009;SHT31;56065;52.472;13.380;2024-01-11T12:31:38;1.56;87.40
69009;SHT31;56065;52.472;13.380;2024-01-11T12:34:03;1.51;87.87
69009;SHT31;56065;52.472;13.380;2024-01-11T12:36:30;1.56;87.85
69009;SHT31;56065;52.472;13.380;2024-01-11T12:38:57;1.56;87.88
69009;SHT31;56065;52.472;13.380;2024-01-11T12:41:23;1.74;87.51
69009;SHT31;56065;52.472;13.380;2024-01-11T12:43:49;1.59;87.89
69009;SHT31;56065;52.472;13.380;2024-01-11T12:46:15;1.69;87.70
69009;SHT31;56065;52.472;13.380;2024-01-11T12:48:41;1.82;87.41
69009;SHT31;56065;52.472;13.380;2024-01-11T12:51:07;1.75;87.54
69009;SHT31;56065;52.472;13.380;2024-01-11T12:53:32;1.79;87.48
69009;SHT31;56065;52.472;13.380;2024-01-11T12:56:06;1.92;87.30
69009;SHT31;56065;52.472;13.380;2024-01-11T12:58:36;2.02;86.86
69009;SHT31;56065;52.472;13.380;2024-01-11T13:01:01;1.89;87.51
69009;SHT31;56065;52.472;13.380;2024-01-11T13:03:28;1.89;87.45
69009;SHT31;56065;52.472;13.380;2024-01-11T13:05:53;1.91;87.45
69009;SHT31;56065;52.472;13.380;2024-01-11T13:08:19;1.95;87.30
69009;SHT31;56065;52.472;13.380;2024-01-11T13:10:44;1.87;87.45
69009;SHT31;56065;52.472;13.380;2024-01-11T13:13:10;1.92;87.52
69009;SHT31;56065;52.472;13.380;2024-01-11T13:15:35;1.93;87.65
69009;SHT31;56065;52.472;13.380;2024-01-11T13:18:01;1.96;87.81
69009;SHT31;56065;52.472;13.380;2024-01-11T13:20:27;2.01;87.72
69009;SHT31;56065;52.472;13.380;2024-01-11T13:23:17;1.96;87.76
69009;SHT31;56065;52.472;13.380;2024-01-11T13:25:47;1.86;88.08
69009;SHT31;56065;52.472;13.380;2024-01-11T13:28:13;2.02;87.95
69009;SHT31;56065;52.472;13.380;2024-01-11T13:30:39;1.87;88.12
69009;SHT31;56065;52.472;13.380;2024-01-11T13:33:06;1.99;88.40
69009;SHT31;56065;52.472;13.380;2024-01-11T13:35:33;2.15;87.79
69009;SHT31;56065;52.472;13.380;2024-01-11T13:37:59;2.16;87.51
69009;SHT31;56065;52.472;13.380;2024-01-11T13:40:25;2.09;87.77
69009;SHT31;56065;52.472;13.380;2024-01-11T13:42:53;2.10;87.80
69009;SHT31;56065;52.472;13.380;2024-01-11T13:45:19;1.91;88.65
69009;SHT31;56065;52.472;13.380;2024-01-11T13:47:44;2.05;88.22
69009;SHT31;56065;52.472;13.380;2024-01-11T13:50:10;1.99;88.69
69009;SHT31;56065;52.472;13.380;2024-01-11T13:52:35;2.07;88.27
69009;SHT31;56065;52.472;13.380;2024-01-11T13:55:00;1.98;88.82
69009;SHT31;56065;52.472;13.380;2024-01-11T13:57:26;1.91;88.86
69009;SHT31;56065;52.472;13.380;2024-01-11T13:59:51;1.99;88.85
69009;SHT31;56065;52.472;13.380;2024-01-11T14:02:17;1.98;88.83
69009;SHT31;56065;52.472;13.380;2024-01-11T14:04:42;1.95;89.12
69009;SHT31;56065;52.472;13.380;2024-01-11T14:07:08;2.05;88.86
69009;SHT31;56065;52.472;13.380;2024-01-11T14:09:33;2.05;88.68
69009;SHT31;56065;52.472;13.380;2024-01-11T14:11:59;2.16;88.42
69009;SHT31;56065;52.472;13.380;2024-01-11T14:14:24;1.96;88.35
69009;SHT31;56065;52.472;13.380;2024-01-11T14:16:49;2.07;88.02
69009;SHT31;56065;52.472;13.380;2024-01-11T14:19:16;2.01;88.38
69009;SHT31;56065;52.472;13.380;2024-01-11T14:21:42;1.93;88.52
69009;SHT31;56065;52.472;13.380;2024-01-11T14:24:07;1.92;88.16
69009;SHT31;56065;52.472;13.380;2024-01-11T14:26:34;1.98;88.05
69009;SHT31;56065;52.472;13.380;2024-01-11T14:28:59;1.91;88.34
69009;SHT31;56065;52.472;13.380;2024-01-11T14:31:26;1.69;89.01
69009;SHT31;56065;52.472;13.380;2024-01-11T14:33:52;1.79;89.07
69009;SHT31;56065;52.472;13.380;2024-01-11T14:36:17;1.82;88.95
69009;SHT31;56065;52.472;13.380;2024-01-11T14:38:43;1.76;89.13
69009;SHT31;56065;52.472;13.380;2024-01-11T14:41:08;1.81;88.87
69009;SHT31;56065;52.472;13.380;2024-01-11T14:43:37;1.78;89.12
69009;SHT31;56065;52.472;13.380;2024-01-11T14:46:02;1.87;88.85
69009;SHT31;56065;52.472;13.380;2024-01-11T14:48:28;1.86;88.92
69009;SHT31;56065;52.472;13.380;2024-01-11T14:50:58;1.78;88.74
69009;SHT31;56065;52.472;13.380;2024-01-11T14:53:24;1.87;88.68
69009;SHT31;56065;52.472;13.380;2024-01-11T14:55:49;1.82;88.91
69009;SHT31;56065;52.472;13.380;2024-01-11T14:58:15;1.78;89.45
69009;SHT31;56065;52.472;13.380;2024-01-11T15:00:42;1.82;89.34
69009;SHT31;56065;52.472;13.380;2024-01-11T15:03:07;1.75;89.48
69009;SHT31;56065;52.472;13.380;2024-01-11T15:05:32;1.79;89.30
69009;SHT31;56065;52.472;13.380;2024-01-11T15:07:58;1.72;89.66
69009;SHT31;56065;52.472;13.380;2024-01-11T15:10:24;1.74;89.92
69009;SHT31;56065;52.472;13.380;2024-01-11T15:12:49;1.82;89.89
69009;SHT31;56065;52.472;13.380;2024-01-11T15:15:15;1.78;89.97
69009;SHT31;56065;52.472;13.380;2024-01-11T15:17:40;1.89;89.69